Tor Futura — OZZE2 — position and weather

sailwx.info

Track history (hours):
 
Tides and Currents Weather Stations Pressure Air Temp Water Temp Dewpoint Dewpoint Depression Visibility Wind Speed Wind Dir Waves Ship Positions

Tor Futura

Last reported at 2014-Sep-20 02:33 UTC. Time now 2014-Sep-20 10:04 UTC.
Position N 37°16' E 010°23'.

Length 183.1 m; beam 25.2 m; draft 7.8 m.

Type: Cargo ship. MMSI: 219927000.

Date/timePositionNaut miles runAvg speedWind from/ knotsBaromVisibWave heightAir tempDewpointWater temp
2014-Sep-20 02:33N 37°16' E 010°23'1712.5
2014-Sep-20 01:13N 37°32' E 010°17'1014.8
2014-Sep-20 00:32N 37°34' E 010°04'1414.3
2014-Sep-19 23:33N 37°42' E 009°50'1413.8
2014-Sep-19 22:34N 37°51' E 009°37'1413.6
2014-Sep-19 21:34N 38°01' E 009°25'1413.5
2014-Sep-19 20:34N 38°11' E 009°13'1413.6
2014-Sep-19 19:34N 38°20' E 009°01'1413.7
2014-Sep-19 18:33N 38°30' E 008°48'1413.7
2014-Sep-19 17:32N 38°40' E 008°36'1413.5
2014-Sep-19 16:29N 38°50' E 008°23'1213.1
2014-Sep-19 15:33N 39°00' E 008°15'1613.3
2014-Sep-19 14:19N 39°15' E 008°05'1013.5
2014-Sep-19 13:33N 39°24' E 007°58'7614.2
2014-Sep-19 08:10N 40°30' E 007°10'13513.8
2014-Sep-18 22:22N 42°28' E 005°42'2613.9
2014-Sep-18 20:32N 42°51' E 005°25'2713.5
2014-Sep-18 18:33N 43°14' E 005°09'1010.4
2014-Sep-18 17:33N 43°20' E 005°21'1 1.2
2014-Sep-18 16:30N 43°19' E 005°22'0 0.0
2014-Sep-18 15:34N 43°19' E 005°22'0 0.0
2014-Sep-18 14:34N 43°19' E 005°22'0 0.0
2014-Sep-18 13:30N 43°19' E 005°22'0 0.0
2014-Sep-18 12:31N 43°19' E 005°22'0 0.0
2014-Sep-18 11:33N 43°19' E 005°22'0 0.0
2014-Sep-18 10:33N 43°19' E 005°22'0 0.0
2014-Sep-18 09:34N 43°19' E 005°22'0 0.0
2014-Sep-18 08:34N 43°19' E 005°22'0 0.0
2014-Sep-18 07:33N 43°19' E 005°22'0 0.0
2014-Sep-18 06:34N 43°19' E 005°22'4 4.3
2014-Sep-18 05:33N 43°19' E 005°16'1110.8
2014-Sep-18 04:33N 43°09' E 005°13'1614.6
2014-Sep-18 03:29N 42°54' E 005°23'1314.4
2014-Sep-18 02:33N 42°43' E 005°31'2914.4
2014-Sep-18 00:33N 42°17' E 005°50'2914.5
2014-Sep-17 22:33N 41°52' E 006°09'1514.5
2014-Sep-17 21:30N 41°39' E 006°20'14215.1
2014-Sep-17 12:07N 39°35' E 007°51'814.0
2014-Sep-17 11:32N 39°28' E 007°56'1414.0
2014-Sep-17 10:30N 39°15' E 008°04'1715.0
2014-Sep-17 09:21N 39°00' E 008°15'1315.1
2014-Sep-17 08:29N 38°49' E 008°24'1415.1
2014-Sep-17 07:32N 38°40' E 008°38'4615.2
2014-Sep-17 04:32N 38°13' E 009°25'5914.9
2014-Sep-17 00:34N 37°35' E 010°22'1515.3
2014-Sep-16 23:34N 37°19' E 010°23'1515.2
2014-Sep-16 22:33N 37°04' E 010°24'1614.8
2014-Sep-16 21:27N 36°48' E 010°22'52 1.1
2014-Sep-15 00:17N 37°36' E 009°58'9013.1
2014-Sep-14 17:23N 38°39' E 008°36'1113.3
2014-Sep-14 16:33N 38°47' E 008°26'20513.2
2014-Sep-14 01:06N 41°45' E 006°15'4612.9
2014-Sep-13 21:34N 42°25' E 005°45'1414.0
2014-Sep-13 20:33N 42°37' E 005°35'162160.9
2014-Sep-13 19:33N 42°49' E 001°55'148148.4
2014-Sep-13 18:33N 43°02' E 005°17'1413.7
2014-Sep-13 17:33N 43°14' E 005°08'1110.8
2014-Sep-13 16:33N 43°20' E 005°20'1 1.4
2014-Sep-13 15:30N 43°19' E 005°22'0 0.0
2014-Sep-13 14:33N 43°19' E 005°22'0 0.0
2014-Sep-13 13:33N 43°19' E 005°22'0 0.0
2014-Sep-13 12:33N 43°19' E 005°22'0 0.0
2014-Sep-13 11:33N 43°19' E 005°22'0 0.0
2014-Sep-13 10:33N 43°19' E 005°22'0 0.0
2014-Sep-13 09:33N 43°19' E 005°22'0 0.0
2014-Sep-13 08:24N 43°19' E 005°22'0 0.0
2014-Sep-13 07:24N 43°19' E 005°22'0 0.0
2014-Sep-13 06:33N 43°19' E 005°22'0 0.0
2014-Sep-13 05:21N 43°19' E 005°22'1 0.6
2014-Sep-13 04:33N 43°19' E 005°21'9 9.5
2014-Sep-13 03:33N 43°14' E 005°11'2115.1
2014-Sep-13 02:12N 42°55' E 005°22'1015.2
2014-Sep-13 01:32N 42°46' E 005°29'21815.3
2014-Sep-12 11:14N 39°35' E 007°50'1115.2
2014-Sep-12 10:32N 39°26' E 007°56'2215.9
2014-Sep-12 09:11N 39°07' E 008°10'1116.6
2014-Sep-12 08:31N 38°57' E 008°17'2015.1
2014-Sep-12 07:10N 38°43' E 008°35'1015.6
2014-Sep-12 06:33N 38°37' E 008°44'13010.8
2014-Sep-11 18:31N 36°48' E 010°16'44 2.6
2014-Sep-11 01:13N 37°33' E 010°15'1112.7
2014-Sep-11 00:23N 37°33' E 010°02'3813.3
2014-Sep-10 21:33N 37°60' E 009°28'1313.1
2014-Sep-10 20:33N 38°09' E 009°16'1613.4
2014-Sep-10 19:20N 38°20' E 009°01'1513.8
2014-Sep-10 18:16N 38°30' E 008°48'1013.8
2014-Sep-10 17:33N 38°37' E 008°39'1313.4
2014-Sep-10 16:33N 38°46' E 008°26'1513.5
2014-Sep-10 15:27N 38°59' E 008°16'1813.0
2014-Sep-10 14:03N 39°15' E 008°04'713.2
2014-Sep-10 13:33N 39°21' E 008°01'1513.8
2014-Sep-10 12:28N 39°34' E 007°51'2913.7
2014-Sep-10 10:21N 39°59' E 007°32'  
Track history (hours):
 
Tides and Currents Weather Stations Pressure Air Temp Water Temp Dewpoint Dewpoint Depression Visibility Wind Speed Wind Dir Waves Ship Positions

Tor Futura

Last reported at 2014-Sep-20 02:33 UTC. Time now 2014-Sep-20 10:04 UTC.
Position N 37°16' E 010°23'.

Length 183.1 m; beam 25.2 m; draft 7.8 m.

Type: Cargo ship. MMSI: 219927000.

Date/timePositionNaut miles runAvg speedWind from/ knotsBaromVisibWave heightAir tempDewpointWater temp
2014-Sep-20 02:33N 37°16' E 010°23'1712.5
2014-Sep-20 01:13N 37°32' E 010°17'1014.8
2014-Sep-20 00:32N 37°34' E 010°04'1414.3
2014-Sep-19 23:33N 37°42' E 009°50'1413.8
2014-Sep-19 22:34N 37°51' E 009°37'1413.6
2014-Sep-19 21:34N 38°01' E 009°25'1413.5
2014-Sep-19 20:34N 38°11' E 009°13'1413.6
2014-Sep-19 19:34N 38°20' E 009°01'1413.7
2014-Sep-19 18:33N 38°30' E 008°48'1413.7
2014-Sep-19 17:32N 38°40' E 008°36'1413.5
2014-Sep-19 16:29N 38°50' E 008°23'1213.1
2014-Sep-19 15:33N 39°00' E 008°15'1613.3
2014-Sep-19 14:19N 39°15' E 008°05'1013.5
2014-Sep-19 13:33N 39°24' E 007°58'7614.2
2014-Sep-19 08:10N 40°30' E 007°10'13513.8
2014-Sep-18 22:22N 42°28' E 005°42'2613.9
2014-Sep-18 20:32N 42°51' E 005°25'2713.5
2014-Sep-18 18:33N 43°14' E 005°09'1010.4
2014-Sep-18 17:33N 43°20' E 005°21'1 1.2
2014-Sep-18 16:30N 43°19' E 005°22'0 0.0
2014-Sep-18 15:34N 43°19' E 005°22'0 0.0
2014-Sep-18 14:34N 43°19' E 005°22'0 0.0
2014-Sep-18 13:30N 43°19' E 005°22'0 0.0
2014-Sep-18 12:31N 43°19' E 005°22'0 0.0
2014-Sep-18 11:33N 43°19' E 005°22'0 0.0
2014-Sep-18 10:33N 43°19' E 005°22'0 0.0
2014-Sep-18 09:34N 43°19' E 005°22'0 0.0
2014-Sep-18 08:34N 43°19' E 005°22'0 0.0
2014-Sep-18 07:33N 43°19' E 005°22'0 0.0
2014-Sep-18 06:34N 43°19' E 005°22'4 4.3
2014-Sep-18 05:33N 43°19' E 005°16'1110.8
2014-Sep-18 04:33N 43°09' E 005°13'1614.6
2014-Sep-18 03:29N 42°54' E 005°23'1314.4
2014-Sep-18 02:33N 42°43' E 005°31'2914.4
2014-Sep-18 00:33N 42°17' E 005°50'2914.5
2014-Sep-17 22:33N 41°52' E 006°09'1514.5
2014-Sep-17 21:30N 41°39' E 006°20'14215.1
2014-Sep-17 12:07N 39°35' E 007°51'814.0
2014-Sep-17 11:32N 39°28' E 007°56'1414.0
2014-Sep-17 10:30N 39°15' E 008°04'1715.0
2014-Sep-17 09:21N 39°00' E 008°15'1315.1
2014-Sep-17 08:29N 38°49' E 008°24'1415.1
2014-Sep-17 07:32N 38°40' E 008°38'4615.2
2014-Sep-17 04:32N 38°13' E 009°25'5914.9
2014-Sep-17 00:34N 37°35' E 010°22'1515.3
2014-Sep-16 23:34N 37°19' E 010°23'1515.2
2014-Sep-16 22:33N 37°04' E 010°24'1614.8
2014-Sep-16 21:27N 36°48' E 010°22'52 1.1
2014-Sep-15 00:17N 37°36' E 009°58'9013.1
2014-Sep-14 17:23N 38°39' E 008°36'1113.3
2014-Sep-14 16:33N 38°47' E 008°26'20513.2
2014-Sep-14 01:06N 41°45' E 006°15'4612.9
2014-Sep-13 21:34N 42°25' E 005°45'1414.0
2014-Sep-13 20:33N 42°37' E 005°35'162160.9
2014-Sep-13 19:33N 42°49' E 001°55'148148.4
2014-Sep-13 18:33N 43°02' E 005°17'1413.7
2014-Sep-13 17:33N 43°14' E 005°08'1110.8
2014-Sep-13 16:33N 43°20' E 005°20'1 1.4
2014-Sep-13 15:30N 43°19' E 005°22'0 0.0
2014-Sep-13 14:33N 43°19' E 005°22'0 0.0
2014-Sep-13 13:33N 43°19' E 005°22'0 0.0
2014-Sep-13 12:33N 43°19' E 005°22'0 0.0
2014-Sep-13 11:33N 43°19' E 005°22'0 0.0
2014-Sep-13 10:33N 43°19' E 005°22'0 0.0
2014-Sep-13 09:33N 43°19' E 005°22'0 0.0
2014-Sep-13 08:24N 43°19' E 005°22'0 0.0
2014-Sep-13 07:24N 43°19' E 005°22'0 0.0
2014-Sep-13 06:33N 43°19' E 005°22'0 0.0
2014-Sep-13 05:21N 43°19' E 005°22'1 0.6
2014-Sep-13 04:33N 43°19' E 005°21'9 9.5
2014-Sep-13 03:33N 43°14' E 005°11'2115.1
2014-Sep-13 02:12N 42°55' E 005°22'1015.2
2014-Sep-13 01:32N 42°46' E 005°29'21815.3
2014-Sep-12 11:14N 39°35' E 007°50'1115.2
2014-Sep-12 10:32N 39°26' E 007°56'2215.9
2014-Sep-12 09:11N 39°07' E 008°10'1116.6
2014-Sep-12 08:31N 38°57' E 008°17'2015.1
2014-Sep-12 07:10N 38°43' E 008°35'1015.6
2014-Sep-12 06:33N 38°37' E 008°44'13010.8
2014-Sep-11 18:31N 36°48' E 010°16'44 2.6
2014-Sep-11 01:13N 37°33' E 010°15'1112.7
2014-Sep-11 00:23N 37°33' E 010°02'3813.3
2014-Sep-10 21:33N 37°60' E 009°28'1313.1
2014-Sep-10 20:33N 38°09' E 009°16'1613.4
2014-Sep-10 19:20N 38°20' E 009°01'1513.8
2014-Sep-10 18:16N 38°30' E 008°48'1013.8
2014-Sep-10 17:33N 38°37' E 008°39'1313.4
2014-Sep-10 16:33N 38°46' E 008°26'1513.5
2014-Sep-10 15:27N 38°59' E 008°16'1813.0
2014-Sep-10 14:03N 39°15' E 008°04'713.2
2014-Sep-10 13:33N 39°21' E 008°01'1513.8
2014-Sep-10 12:28N 39°34' E 007°51'2913.7
2014-Sep-10 10:21N 39°59' E 007°32'  

Dump ship's entire track history